Main page
METAR-TAF:

METAR-TAF

Airports :

Windham Airport

Willimantic, Connecticut, United States

latitude: 41-44-31N, longitude: 072-11-01W, elevation: 246 ft

Current weather observation

The report was made 21 minutes ago, at 03:52 UTC
Calm wind
Temperature 37°F
Humidity 75%
Pressure 29.97 in. Hg
Visibility: 10 miles
Broken clouds at a height of 10000 ft

METAR: KIJD 250352Z AUTO 00000KT 10SM BKN100 03/M01 A2997 RMK AO2 SLP148 T00331006 $

Time: 23:13 (04:13 UTC)


TAF: missing

Weather observations and forecasts of more than 4000 airports (METAR and TAF reports).

The available stations are represented by yellow and red dots on the map.

Hover mouse over dot to see the name of the station.

Then click to see weather observations and forecasts.

To change the map : click on the green buttons with a black cross to zoom in, on the green button with a dash to zoom out, or on the green arrows for adjacent maps.


METAR-TAF: